Bovine, Arkansas
Current Conditions -  °F | °C
As of 3:15 AM on Monday 22 Dec 2014 (Local Time) from KBQP Reporting Station
Haze Haze  
Wind Chill: 46°   Ceiling: 400
Heat Index: 48°   Visibility: 5mi
Dew Point: 47°   Wind: 5mph
Humidity: 98%   Direction: 160°SSE
Pressure: 29.85"   Gusts: NA
Location:  33.1762°N, 91.7595°W
Report Text: KBQP 220915Z AUTO 16004KT 5SM BR OVC004 09/09 A2985 RMK AO2 T00880085
Loading
Personal Weather Stations






























Interactive Weather Map New forecast layout! Learn more

10-Day Weather Forecast

Advertisements
Track Severe Weather on mobile